Solana Beach, California
Current Conditions -  °F | °C
As of 11:55 PM on Monday 26 Jan 2015 (Local Time) from KNKX Reporting Station
Broken Clouds Broken Clouds  
Wind Chill: 56°   Ceiling: 9000
Heat Index: 56°   Visibility: 10mi
Dew Point: 49°   Wind: 8mph
Humidity: 77%   Direction: 70°ENE
Pressure: 30.1"   Gusts: NA
Location:  32.98°N, 117.27°W
Report Text: KNKX 270755Z 07007KT 10SM BKN090 13/09 A3010 RMK AO2 SLP186 T01330094 402330117 $
Loading
Personal Weather Stations






























Interactive Weather Map New forecast layout! Learn more

10-Day Weather Forecast

Advertisements
Track Severe Weather on mobile